Time;durP1;ratioP1;P1;durP2;ratioP2;P2;SDS_P1;SDS_P2;PMS_P1;PMS_P2;Temp;Humidity;BMP_temperature;BMP_pressure;BME280_temperature;BME280_humidity;BME280_pressure;Samples;Min_cycle;Max_cycle;Signal;HPM_P1;HPM_P2
2023/12/01 00:01:29;;;;;;;;;;;;;;;-2.03;77.45;99948.31;4222924;28;20373;-68
2023/12/01 00:03:31;;;;;;;;;;;;;;;-2.08;77.29;99947.00;4223445;28;20023;-69
2023/12/01 00:05:33;;;;;;;;;;;;;;;-2.05;77.32;99944.94;4222666;28;20556;-68
2023/12/01 00:07:35;;;;;;;;;;;;;;;-2.03;77.54;99955.41;4222982;28;20018;-68
2023/12/01 00:09:38;;;;;;;;;;;;;;;-2.04;77.40;99951.06;4222886;28;20014;-68
2023/12/01 00:11:40;;;;;;;;;;;;;;;-2.04;77.38;99949.28;4221539;28;20014;-67
2023/12/01 00:13:42;;;;;;;;;;;;;;;-2.01;77.35;99950.84;4221806;28;20021;-67
2023/12/01 00:15:44;;;;;;;;;;;;;;;-2.01;76.92;99961.44;4222155;28;19962;-67
2023/12/01 00:17:45;;;;;;;;;;;;;;;-2.02;76.86;99955.31;4223126;28;19967;-67
2023/12/01 00:19:47;;;;;;;;;;;;;;;-2.00;77.20;99957.84;4222277;28;20607;-67
2023/12/01 00:21:49;;;;;;;;;;;;;;;-2.02;77.14;99954.47;4221949;28;20043;-67
2023/12/01 00:23:52;;;;;;;;;;;;;;;-2.00;76.99;99960.47;4222551;28;20465;-67
2023/12/01 00:25:55;;;;;;;;;;;;;;;-2.01;77.16;99961.44;4222927;28;20034;-67
2023/12/01 00:27:58;;;;;;;;;;;;;;;-2.01;77.20;99964.06;4223252;28;20520;-67
2023/12/01 00:30:00;;;;;;;;;;;;;;;-2.01;77.37;99962.28;4221742;28;20019;-67
2023/12/01 00:32:01;;;;;;;;;;;;;;;-2.00;77.24;99957.84;4220659;28;20022;-67
2023/12/01 00:34:03;;;;;;;;;;;;;;;-1.99;77.19;99956.88;4220694;28;19958;-68
2023/12/01 00:36:06;;;;;;;;;;;;;;;-2.01;76.96;99958.78;4204196;28;20011;-67
2023/12/01 00:38:08;;;;;;;;;;;;;;;-2.01;77.02;99966.72;4223056;28;19923;-67
2023/12/01 00:40:10;;;;;;;;;;;;;;;-2.03;77.01;99960.72;4222303;28;20394;-67
2023/12/01 00:42:14;;;;;;;;;;;;;;;-2.02;76.97;99965.06;4220588;28;20022;-67
2023/12/01 00:44:16;;;;;;;;;;;;;;;-2.02;76.89;99967.72;4221417;28;20022;-67
2023/12/01 00:46:18;;;;;;;;;;;;;;;-2.04;76.75;99961.66;4220605;28;20122;-67
2023/12/01 00:48:20;;;;;;;;;;;;;;;-2.02;76.78;99973.00;4222632;28;20848;-67
2023/12/01 00:50:22;;;;;;;;;;;;;;;-2.02;76.77;99965.06;4220452;28;20019;-67
2023/12/01 00:52:24;;;;;;;;;;;;;;;-2.02;76.74;99965.06;4222014;28;20022;-67
2023/12/01 00:54:26;;;;;;;;;;;;;;;-2.02;76.63;99960.59;4221778;28;20022;-67
2023/12/01 00:56:29;;;;;;;;;;;;;;;-2.01;76.72;99964.94;4222286;27;20462;-67
2023/12/01 00:58:32;;;;;;;;;;;;;;;-2.00;76.70;99968.44;4220985;27;20498;-67
2023/12/01 01:00:35;;;;;;;;;;;;;;;-2.00;76.69;99968.44;4221368;28;20026;-67
2023/12/01 01:02:37;;;;;;;;;;;;;;;-2.01;76.67;99970.25;4221696;28;20011;-68
2023/12/01 01:04:38;;;;;;;;;;;;;;;-2.02;76.38;99970.34;4221272;28;20035;-68
2023/12/01 01:06:40;;;;;;;;;;;;;;;-2.01;76.43;99972.00;4237801;27;19923;-67
2023/12/01 01:08:42;;;;;;;;;;;;;;;-2.02;76.41;99976.47;4220635;28;20020;-68
2023/12/01 01:10:44;;;;;;;;;;;;;;;-2.03;76.39;99979.25;4237618;27;20058;-68
2023/12/01 01:12:47;;;;;;;;;;;;;;;-2.05;76.21;99979.34;4219008;28;20465;-68
2023/12/01 01:14:50;;;;;;;;;;;;;;;-2.05;76.08;99982.00;4204534;28;20469;-67
2023/12/01 01:16:52;;;;;;;;;;;;;;;-2.07;76.02;99983.94;4236945;27;20655;-67
2023/12/01 01:18:54;;;;;;;;;;;;;;;-2.08;76.03;99991.97;4222284;28;20378;-68
2023/12/01 01:20:56;;;;;;;;;;;;;;;-2.07;76.11;99989.22;4203821;28;20011;-67
2023/12/01 01:22:58;;;;;;;;;;;;;;;-2.09;76.43;99990.28;4221693;28;20664;-68
2023/12/01 01:25:01;;;;;;;;;;;;;;;-2.09;76.26;99984.97;4220284;27;20022;-68
2023/12/01 01:27:03;;;;;;;;;;;;;;;-2.07;76.50;99988.34;4220235;28;20030;-67
2023/12/01 01:29:07;;;;;;;;;;;;;;;-2.08;76.67;99991.97;4201105;28;20388;-67
2023/12/01 01:31:11;;;;;;;;;;;;;;;-2.06;76.88;99992.69;4220222;28;20030;-67
2023/12/01 01:33:17;;;;;;;;;;;;;;;-2.06;76.90;99998.81;4219908;28;20403;-67
2023/12/01 01:35:19;;;;;;;;;;;;;;;-2.07;76.78;99994.50;4220801;28;20018;-67
2023/12/01 01:37:22;;;;;;;;;;;;;;;-2.07;76.69;99991.00;4220290;28;20019;-67
2023/12/01 01:39:24;;;;;;;;;;;;;;;-2.06;76.69;99990.06;4218935;28;20429;-67
2023/12/01 01:41:26;;;;;;;;;;;;;;;-2.05;76.64;99994.41;4218864;28;20015;-67
2023/12/01 01:43:28;;;;;;;;;;;;;;;-2.06;76.84;99995.34;4220050;28;20015;-67
2023/12/01 01:45:30;;;;;;;;;;;;;;;-2.06;76.99;99998.00;4220718;28;20453;-67
2023/12/01 01:47:32;;;;;;;;;;;;;;;-2.04;77.12;99999.56;4236525;27;20014;-68
2023/12/01 01:49:34;;;;;;;;;;;;;;;-2.05;76.97;100002.34;4218262;28;20015;-67
2023/12/01 01:51:36;;;;;;;;;;;;;;;-2.04;77.31;100004.88;4221655;28;20031;-67
2023/12/01 01:53:41;;;;;;;;;;;;;;;-2.05;77.06;99999.69;4220859;28;20368;-68
2023/12/01 01:55:43;;;;;;;;;;;;;;;-2.06;77.08;100001.47;4220972;28;20035;-68
2023/12/01 01:57:45;;;;;;;;;;;;;;;-2.08;77.14;99995.47;4219284;28;20014;-67
2023/12/01 01:59:48;;;;;;;;;;;;;;;-2.07;77.00;99993.66;4219881;28;20377;-67
2023/12/01 02:01:50;;;;;;;;;;;;;;;-2.08;76.73;99984.88;4236558;27;20448;-67
2023/12/01 02:03:53;;;;;;;;;;;;;;;-2.07;76.66;99985.69;4236632;27;20421;-68
2023/12/01 02:05:55;;;;;;;;;;;;;;;-2.13;76.32;99987.03;4221617;28;20026;-68
2023/12/01 02:07:57;;;;;;;;;;;;;;;-2.15;76.47;99988.91;4221605;28;20885;-68
2023/12/01 02:09:58;;;;;;;;;;;;;;;-2.15;76.47;99988.91;4220716;28;20465;-68
2023/12/01 02:12:00;;;;;;;;;;;;;;;-2.17;76.51;99985.56;4219692;28;19928;-68
2023/12/01 02:14:02;;;;;;;;;;;;;;;-2.18;76.28;99987.38;4219708;28;20007;-67
2023/12/01 02:16:04;;;;;;;;;;;;;;;-2.20;76.16;99986.63;4220888;28;20035;-67
2023/12/01 02:18:17;;;;;;;;;;;;;;;-2.22;76.27;99988.53;4221478;28;19958;-67
2023/12/01 02:20:22;;;;;;;;;;;;;;;-2.24;76.25;99976.38;4221980;28;20055;-68
2023/12/01 02:22:27;;;;;;;;;;;;;;;-2.24;76.62;99987.81;4221002;28;20027;-67
2023/12/01 02:24:30;;;;;;;;;;;;;;;-2.25;76.16;99986.13;4220884;28;20015;-67
2023/12/01 02:26:33;;;;;;;;;;;;;;;-2.29;76.16;99994.38;4220620;28;20022;-67
2023/12/01 02:28:35;;;;;;;;;;;;;;;-2.29;76.25;99997.03;4220378;28;20022;-67
2023/12/01 02:30:37;;;;;;;;;;;;;;;-2.33;75.95;99993.78;4219801;28;20023;-67
2023/12/01 02:32:39;;;;;;;;;;;;;;;-2.36;75.96;99992.19;4221171;28;20023;-68
2023/12/01 02:34:45;;;;;;;;;;;;;;;-2.38;75.80;100002.06;4219624;28;20368;-68
2023/12/01 02:36:47;;;;;;;;;;;;;;;-2.40;75.52;99997.81;4220550;28;20015;-68
2023/12/01 02:38:50;;;;;;;;;;;;;;;-2.44;75.69;99993.72;4221368;28;20015;-67
2023/12/01 02:40:51;;;;;;;;;;;;;;;-2.47;75.46;99986.03;4201255;28;19971;-67
2023/12/01 02:42:54;;;;;;;;;;;;;;;-2.49;75.75;99979.97;4201714;28;20419;-67
2023/12/01 02:44:55;;;;;;;;;;;;;;;-2.50;75.63;99980.94;4218604;28;19972;-67
2023/12/01 02:46:57;;;;;;;;;;;;;;;-2.54;75.53;99986.47;4220444;28;20014;-67
2023/12/01 02:48:59;;;;;;;;;;;;;;;-2.58;75.58;99978.88;4220158;28;20023;-67
2023/12/01 02:51:00;;;;;;;;;;;;;;;-2.60;75.56;99984.25;4219656;28;19928;-67
2023/12/01 02:53:03;;;;;;;;;;;;;;;-2.63;75.31;99987.13;4219971;28;20002;-67
2023/12/01 02:55:07;;;;;;;;;;;;;;;-2.65;75.54;99985.53;4220530;28;20025;-67
2023/12/01 02:57:10;;;;;;;;;;;;;;;-2.64;75.73;99990.72;4219745;28;20014;-68
2023/12/01 02:59:12;;;;;;;;;;;;;;;-2.68;75.65;99983.97;4218956;28;20042;-68
2023/12/01 03:01:14;;;;;;;;;;;;;;;-2.68;75.65;99991.91;4218986;28;20500;-68
2023/12/01 03:03:16;;;;;;;;;;;;;;;-2.69;75.83;99995.50;4220633;28;20023;-67
2023/12/01 03:05:19;;;;;;;;;;;;;;;-2.71;75.83;99997.41;4218730;28;20011;-67
2023/12/01 03:07:20;;;;;;;;;;;;;;;-2.74;75.60;99997.63;4220298;28;20019;-67
2023/12/01 03:09:24;;;;;;;;;;;;;;;-2.74;75.84;99998.47;4220160;28;20840;-68
2023/12/01 03:11:27;;;;;;;;;;;;;;;-2.77;75.70;99997.84;4219984;28;20022;-68
2023/12/01 03:13:32;;;;;;;;;;;;;;;-2.78;75.67;100001.44;4217818;28;19959;-68
2023/12/01 03:15:34;;;;;;;;;;;;;;;-2.80;75.69;100003.34;4220025;28;20026;-68
2023/12/01 03:17:35;;;;;;;;;;;;;;;-2.81;75.75;100002.50;4235498;28;20011;-68
2023/12/01 03:19:40;;;;;;;;;;;;;;;-2.83;75.82;100001.75;4219228;28;19930;-68
2023/12/01 03:21:42;;;;;;;;;;;;;;;-2.83;75.69;100009.69;4217176;28;20433;-68
2023/12/01 03:23:44;;;;;;;;;;;;;;;-2.84;75.83;100005.34;4219957;28;19930;-68
2023/12/01 03:25:47;;;;;;;;;;;;;;;-2.84;75.94;100015.09;4220547;28;20038;-68
2023/12/01 03:27:50;;;;;;;;;;;;;;;-2.86;75.79;100014.38;4218962;28;20023;-68
2023/12/01 03:29:53;;;;;;;;;;;;;;;-2.90;75.69;100013.72;4217145;28;20867;-68
2023/12/01 03:31:55;;;;;;;;;;;;;;;-2.91;75.65;100012.03;4219001;28;20016;-67
2023/12/01 03:33:57;;;;;;;;;;;;;;;-2.92;75.70;100013.00;4219077;28;20016;-67
2023/12/01 03:35:59;;;;;;;;;;;;;;;-2.92;75.89;100015.63;4220686;28;20022;-67
2023/12/01 03:38:00;;;;;;;;;;;;;;;-2.95;75.70;100014.03;4202824;28;20457;-68
2023/12/01 03:40:01;;;;;;;;;;;;;;;-2.97;75.64;100009.84;4220576;28;20018;-67
2023/12/01 03:42:04;;;;;;;;;;;;;;;-2.97;76.22;100015.94;4218208;28;19963;-68
2023/12/01 03:44:08;;;;;;;;;;;;;;;-2.97;76.81;100010.66;4202378;28;20413;-68
2023/12/01 03:46:10;;;;;;;;;;;;;;;-2.97;76.77;100013.31;4219218;28;20433;-68
2023/12/01 03:48:12;;;;;;;;;;;;;;;-2.99;76.44;100017.03;4218797;28;20019;-68
2023/12/01 03:50:14;;;;;;;;;;;;;;;-3.01;76.13;100016.28;4218360;28;20032;-67
2023/12/01 03:52:16;;;;;;;;;;;;;;;-3.04;75.69;100017.34;4219028;28;20039;-67
2023/12/01 03:54:18;;;;;;;;;;;;;;;-3.04;75.74;100013.84;4218840;28;20023;-67
2023/12/01 03:56:19;;;;;;;;;;;;;;;-3.05;75.64;100013.00;4218697;28;20026;-67
2023/12/01 03:58:24;;;;;;;;;;;;;;;-3.05;75.70;100017.47;4219404;28;19970;-67
2023/12/01 04:00:32;;;;;;;;;;;;;;;-3.09;75.64;100019.44;4218779;28;20018;-67
2023/12/01 04:02:36;;;;;;;;;;;;;;;-3.09;75.78;100016.81;4219198;28;20015;-67
2023/12/01 04:04:38;;;;;;;;;;;;;;;-3.11;75.56;100021.38;4218431;28;20473;-67
2023/12/01 04:06:42;;;;;;;;;;;;;;;-3.12;75.69;100019.66;4217497;28;20501;-67
2023/12/01 04:08:44;;;;;;;;;;;;;;;-3.13;75.46;100018.00;4220163;28;20018;-67
2023/12/01 04:10:46;;;;;;;;;;;;;;;-3.15;75.48;100025.16;4202680;28;20019;-67
2023/12/01 04:12:48;;;;;;;;;;;;;;;-3.15;75.56;100027.81;4218751;28;20026;-67
2023/12/01 04:14:50;;;;;;;;;;;;;;;-3.17;75.58;100029.72;4218141;28;20027;-67
2023/12/01 04:16:53;;;;;;;;;;;;;;;-3.14;76.46;100029.50;4216651;28;20041;-67
2023/12/01 04:18:55;;;;;;;;;;;;;;;-3.18;76.04;100015.66;4217256;28;20026;-67
2023/12/01 04:20:58;;;;;;;;;;;;;;;-3.19;75.81;100021.91;4220160;28;20036;-67
2023/12/01 04:23:00;;;;;;;;;;;;;;;-3.21;75.81;100018.53;4222027;28;19928;-68
2023/12/01 04:25:02;;;;;;;;;;;;;;;-3.21;75.78;100015.00;4221341;28;20027;-67
2023/12/01 04:27:05;;;;;;;;;;;;;;;-3.22;75.71;100030.03;4221065;28;20018;-67
2023/12/01 04:29:07;;;;;;;;;;;;;;;-3.22;75.98;100026.56;4221471;28;20015;-67
2023/12/01 04:31:09;;;;;;;;;;;;;;;-3.21;75.96;100020.28;4203367;28;20014;-67
2023/12/01 04:33:13;;;;;;;;;;;;;;;-3.20;75.88;100020.19;4222192;28;20027;-67
2023/12/01 04:35:15;;;;;;;;;;;;;;;-3.21;75.94;100025.59;4222478;28;20339;-67
2023/12/01 04:37:17;;;;;;;;;;;;;;;-3.22;75.76;100026.56;4222493;28;20018;-67
2023/12/01 04:39:20;;;;;;;;;;;;;;;-3.24;75.54;100031.06;4221320;28;20007;-67
2023/12/01 04:41:22;;;;;;;;;;;;;;;-3.28;75.58;100033.94;4221809;28;20086;-68
2023/12/01 04:43:24;;;;;;;;;;;;;;;-3.28;75.45;100033.94;4221962;28;20037;-67
2023/12/01 04:45:27;;;;;;;;;;;;;;;-3.29;75.57;100028.78;4221978;28;20010;-68
2023/12/01 04:47:28;;;;;;;;;;;;;;;-3.31;75.63;100020.97;4221035;28;20015;-67
2023/12/01 04:49:31;;;;;;;;;;;;;;;-3.32;75.53;100029.00;4222433;28;20314;-67
2023/12/01 04:51:33;;;;;;;;;;;;;;;-3.31;75.50;100030.66;4222400;28;20019;-67
2023/12/01 04:53:35;;;;;;;;;;;;;;;-3.31;75.67;100036.81;4222193;28;20018;-67
2023/12/01 04:55:36;;;;;;;;;;;;;;;-3.30;75.57;100041.13;4221431;28;20362;-67
2023/12/01 04:57:38;;;;;;;;;;;;;;;-3.28;75.74;100041.84;4222031;28;19924;-67
2023/12/01 04:59:40;;;;;;;;;;;;;;;-3.27;75.83;100035.63;4222037;28;20454;-67
2023/12/01 05:01:42;;;;;;;;;;;;;;;-3.25;75.84;100032.88;4222644;28;20010;-67
2023/12/01 05:03:43;;;;;;;;;;;;;;;-3.27;75.68;100035.63;4221625;28;19947;-68
2023/12/01 05:05:46;;;;;;;;;;;;;;;-3.30;75.68;100038.47;4223235;28;19971;-67
2023/12/01 05:07:50;;;;;;;;;;;;;;;-3.30;75.63;100027.09;4222874;28;20026;-67
2023/12/01 05:09:52;;;;;;;;;;;;;;;-3.29;75.71;100026.97;4221758;28;20014;-67
2023/12/01 05:11:54;;;;;;;;;;;;;;;-3.27;75.84;100030.34;4220383;28;20014;-68
2023/12/01 05:13:56;;;;;;;;;;;;;;;-3.26;75.66;100033.81;4221330;28;20026;-67
2023/12/01 05:16:01;;;;;;;;;;;;;;;-3.27;75.66;100040.06;4221210;28;20027;-67
2023/12/01 05:18:04;;;;;;;;;;;;;;;-3.30;75.50;100035.00;4221749;28;20019;-67
2023/12/01 05:20:15;;;;;;;;;;;;;;;-3.30;75.60;100041.13;4221965;28;20387;-67
2023/12/01 05:22:18;;;;;;;;;;;;;;;-3.31;75.57;100044.72;4220590;28;20032;-68
2023/12/01 05:24:20;;;;;;;;;;;;;;;-3.31;75.60;100047.38;4221470;28;20066;-68
2023/12/01 05:26:22;;;;;;;;;;;;;;;-3.30;75.66;100040.28;4220808;28;20026;-68
2023/12/01 05:28:25;;;;;;;;;;;;;;;-3.29;75.54;100042.00;4221187;28;20023;-68
2023/12/01 05:30:28;;;;;;;;;;;;;;;-3.32;75.25;100043.03;4221164;28;20023;-68
2023/12/01 05:32:29;;;;;;;;;;;;;;;-3.30;75.38;100048.22;4220872;28;20043;-68
2023/12/01 05:34:31;;;;;;;;;;;;;;;-3.31;75.48;100054.44;4221443;28;19928;-70
2023/12/01 05:36:33;;;;;;;;;;;;;;;-3.31;75.57;100052.66;4221121;28;20019;-68
2023/12/01 05:38:36;;;;;;;;;;;;;;;-3.29;75.76;100057.84;4221336;28;20030;-68
2023/12/01 05:40:37;;;;;;;;;;;;;;;-3.31;75.56;100055.28;4219232;28;20010;-68
2023/12/01 05:42:41;;;;;;;;;;;;;;;-3.30;75.68;100046.41;4219335;28;20016;-68
2023/12/01 05:44:44;;;;;;;;;;;;;;;-3.26;75.69;100062.88;4220702;28;19923;-68
2023/12/01 05:46:47;;;;;;;;;;;;;;;-3.27;75.69;100059.41;4218501;28;20026;-68
2023/12/01 05:48:48;;;;;;;;;;;;;;;-3.30;75.51;100064.06;4220770;28;20047;-68
2023/12/01 05:50:51;;;;;;;;;;;;;;;-3.34;75.43;100055.50;4220677;28;20010;-68
2023/12/01 05:52:53;;;;;;;;;;;;;;;-3.33;75.46;100064.25;4220884;28;20011;-68
2023/12/01 05:54:56;;;;;;;;;;;;;;;-3.32;75.61;100060.69;4220755;28;20031;-67
2023/12/01 05:56:58;;;;;;;;;;;;;;;-3.29;75.67;100063.13;4221187;28;20362;-67
2023/12/01 05:59:04;;;;;;;;;;;;;;;-3.26;75.60;100065.50;4219687;28;20717;-68
2023/12/01 06:01:07;;;;;;;;;;;;;;;-3.24;75.66;100071.56;4220504;28;20046;-67
2023/12/01 06:03:09;;;;;;;;;;;;;;;-3.27;75.56;100069.97;4221031;28;20562;-68
2023/12/01 06:05:12;;;;;;;;;;;;;;;-3.24;75.51;100073.34;4221019;28;20615;-68
2023/12/01 06:07:14;;;;;;;;;;;;;;;-3.22;75.60;100071.44;4220495;28;20015;-67
2023/12/01 06:09:17;;;;;;;;;;;;;;;-3.22;75.49;100071.44;4220397;28;20434;-68
2023/12/01 06:11:20;;;;;;;;;;;;;;;-3.23;75.50;100061.81;4219806;28;20011;-68
2023/12/01 06:13:22;;;;;;;;;;;;;;;-3.21;75.67;100067.84;4219271;28;20031;-67
2023/12/01 06:15:24;;;;;;;;;;;;;;;-3.21;75.86;100071.34;4219048;28;20018;-69
2023/12/01 06:17:26;;;;;;;;;;;;;;;-3.21;75.72;100078.41;4218037;28;20027;-67
2023/12/01 06:19:28;;;;;;;;;;;;;;;-3.20;75.68;100080.09;4219122;28;20022;-67
2023/12/01 06:21:30;;;;;;;;;;;;;;;-3.19;75.80;100087.94;4218724;28;20094;-66
2023/12/01 06:23:33;;;;;;;;;;;;;;;-3.19;75.89;100089.72;4219521;28;20038;-67
2023/12/01 06:25:36;;;;;;;;;;;;;;;-3.18;75.87;100091.41;4219389;28;19930;-68
2023/12/01 06:27:40;;;;;;;;;;;;;;;-3.20;75.92;100088.03;4218716;28;20023;-67
2023/12/01 06:29:42;;;;;;;;;;;;;;;-3.17;76.01;100087.81;4220508;28;20015;-68
2023/12/01 06:31:44;;;;;;;;;;;;;;;-3.16;76.00;100089.53;4221017;28;20014;-67
2023/12/01 06:33:46;;;;;;;;;;;;;;;-3.16;75.90;100097.44;4219807;28;20027;-68
2023/12/01 06:35:48;;;;;;;;;;;;;;;-3.16;75.96;100090.38;4219935;28;20019;-68
2023/12/01 06:37:50;;;;;;;;;;;;;;;-3.14;75.84;100087.63;4218391;28;20018;-68
2023/12/01 06:39:52;;;;;;;;;;;;;;;-3.15;75.96;100093.84;4219882;28;20014;-68
2023/12/01 06:41:54;;;;;;;;;;;;;;;-3.16;75.57;100097.44;4219297;28;20022;-69
2023/12/01 06:43:58;;;;;;;;;;;;;;;-3.16;75.90;100105.38;4218939;28;20470;-68
2023/12/01 06:46:00;;;;;;;;;;;;;;;-3.14;75.73;100104.31;4219401;28;20611;-68
2023/12/01 06:48:02;;;;;;;;;;;;;;;-3.14;75.79;100111.38;4219466;28;20364;-68
2023/12/01 06:50:03;;;;;;;;;;;;;;;-3.14;75.83;100109.59;4220303;28;20433;-68
2023/12/01 06:52:08;;;;;;;;;;;;;;;-3.12;75.78;100109.47;4220007;28;20022;-68
2023/12/01 06:54:10;;;;;;;;;;;;;;;-3.13;75.67;100119.22;4219158;28;19959;-68
2023/12/01 06:56:12;;;;;;;;;;;;;;;-3.15;75.78;100107.03;4219459;28;20015;-68
2023/12/01 06:58:14;;;;;;;;;;;;;;;-3.15;75.85;100102.63;4219742;28;20026;-68
2023/12/01 07:00:29;;;;;;;;;;;;;;;-3.16;75.62;100103.56;4219593;28;20376;-69
2023/12/01 07:02:33;;;;;;;;;;;;;;;-3.15;75.80;100107.91;4219633;28;20010;-68
2023/12/01 07:04:34;;;;;;;;;;;;;;;-3.16;75.75;100113.28;4219908;28;20395;-68
2023/12/01 07:06:36;;;;;;;;;;;;;;;-3.17;75.83;100117.72;4219218;28;19924;-68
2023/12/01 07:08:39;;;;;;;;;;;;;;;-3.18;75.75;100116.03;4218780;28;20023;-68
2023/12/01 07:10:41;;;;;;;;;;;;;;;-3.18;75.84;100118.69;4220002;28;20014;-67
2023/12/01 07:12:43;;;;;;;;;;;;;;;-3.19;75.77;100127.56;4219829;28;20383;-67
2023/12/01 07:14:46;;;;;;;;;;;;;;;-3.17;75.78;100128.28;4219174;28;20035;-67
2023/12/01 07:16:49;;;;;;;;;;;;;;;-3.18;75.28;100133.66;4216962;28;20026;-67
2023/12/01 07:18:51;;;;;;;;;;;;;;;-3.20;75.43;100138.22;4219227;28;20015;-69
2023/12/01 07:20:53;;;;;;;;;;;;;;;-3.20;75.39;100146.97;4219474;28;20022;-70
2023/12/01 07:22:55;;;;;;;;;;;;;;;-3.22;75.47;100135.69;4219365;28;20026;-67
2023/12/01 07:24:56;;;;;;;;;;;;;;;-3.27;75.37;100141.28;4218560;28;20027;-70
2023/12/01 07:26:58;;;;;;;;;;;;;;;-3.26;75.82;100150.91;4218026;28;20509;-70
2023/12/01 07:29:04;;;;;;;;;;;;;;;-3.23;76.00;100144.53;4219743;28;20023;-69
2023/12/01 07:31:05;;;;;;;;;;;;;;;-3.21;76.17;100150.59;4218254;28;20420;-69
2023/12/01 07:33:09;;;;;;;;;;;;;;;-3.20;76.16;100165.47;4219785;28;20023;-70
2023/12/01 07:35:11;;;;;;;;;;;;;;;-3.19;76.23;100169.81;4219249;28;20027;-70
2023/12/01 07:37:13;;;;;;;;;;;;;;;-3.17;76.23;100173.19;4219171;28;20010;-69
2023/12/01 07:39:15;;;;;;;;;;;;;;;-3.14;76.30;100178.25;4219045;28;20007;-70
2023/12/01 07:41:17;;;;;;;;;;;;;;;-3.14;76.22;100174.78;4219829;28;20026;-69
2023/12/01 07:43:21;;;;;;;;;;;;;;;-3.12;76.14;100178.16;4219346;28;20426;-69
2023/12/01 07:45:23;;;;;;;;;;;;;;;-3.12;76.19;100181.66;4218658;28;20031;-68
2023/12/01 07:47:25;;;;;;;;;;;;;;;-3.11;76.45;100172.78;4217085;28;19931;-69
2023/12/01 07:49:28;;;;;;;;;;;;;;;-3.06;76.67;100177.75;4217720;28;20019;-70
2023/12/01 07:51:30;;;;;;;;;;;;;;;-3.08;76.45;100172.56;4217228;28;20018;-67
2023/12/01 07:53:33;;;;;;;;;;;;;;;-3.05;76.44;100187.38;4219692;28;20011;-69
2023/12/01 07:55:35;;;;;;;;;;;;;;;-3.05;76.37;100187.38;4222982;28;20010;-69
2023/12/01 07:57:37;;;;;;;;;;;;;;;-3.03;76.39;100192.56;4222515;28;20039;-69
2023/12/01 07:59:39;;;;;;;;;;;;;;;-3.01;76.27;100185.38;4222083;28;20014;-70
2023/12/01 08:01:41;;;;;;;;;;;;;;;-2.98;76.35;100198.38;4222814;28;20598;-69
2023/12/01 08:03:44;;;;;;;;;;;;;;;-2.98;76.27;100198.38;4222604;28;20023;-69
2023/12/01 08:05:46;;;;;;;;;;;;;;;-2.98;76.38;100193.09;4223424;28;20006;-69
2023/12/01 08:07:51;;;;;;;;;;;;;;;-2.98;76.27;100196.59;4222022;28;20039;-69
2023/12/01 08:09:53;;;;;;;;;;;;;;;-2.97;76.29;100200.06;4222313;28;20019;-69
2023/12/01 08:11:55;;;;;;;;;;;;;;;-2.95;76.49;100204.28;4221806;28;20007;-69
2023/12/01 08:13:57;;;;;;;;;;;;;;;-2.95;76.28;100216.66;4221773;28;19958;-69
2023/12/01 08:16:00;;;;;;;;;;;;;;;-2.93;76.58;100209.47;4222079;28;20039;-69
2023/12/01 08:18:02;;;;;;;;;;;;;;;-2.94;76.19;100206.00;4221846;28;20019;-69
2023/12/01 08:20:05;;;;;;;;;;;;;;;-2.94;76.41;100208.63;4222692;28;20014;-69
2023/12/01 08:22:08;;;;;;;;;;;;;;;-2.91;76.36;100207.59;4222505;28;20006;-69
2023/12/01 08:24:11;;;;;;;;;;;;;;;-2.90;76.43;100210.13;4222644;28;20015;-69
2023/12/01 08:26:13;;;;;;;;;;;;;;;-2.86;76.44;100212.56;4221562;28;20030;-69
2023/12/01 08:28:16;;;;;;;;;;;;;;;-2.87;76.37;100214.34;4222698;28;20373;-67
2023/12/01 08:30:18;;;;;;;;;;;;;;;-2.86;76.26;100208.13;4222871;28;20402;-69
2023/12/01 08:32:20;;;;;;;;;;;;;;;-2.84;76.33;100208.84;4222389;28;20514;-69
2023/12/01 08:34:22;;;;;;;;;;;;;;;-2.83;76.34;100215.84;4222455;28;20010;-69
2023/12/01 08:36:24;;;;;;;;;;;;;;;-2.80;76.34;100222.72;4222020;28;20339;-69
2023/12/01 08:38:28;;;;;;;;;;;;;;;-2.82;76.24;100211.41;4222531;28;20019;-69
2023/12/01 08:40:30;;;;;;;;;;;;;;;-2.80;76.38;100215.63;4222602;28;20006;-69
2023/12/01 08:42:31;;;;;;;;;;;;;;;-2.76;76.52;100227.72;4220932;28;20396;-69
2023/12/01 08:44:33;;;;;;;;;;;;;;;-2.73;76.54;100226.63;4221347;28;20035;-69
2023/12/01 08:46:34;;;;;;;;;;;;;;;-2.69;76.73;100230.78;4222711;28;20014;-69
2023/12/01 08:48:36;;;;;;;;;;;;;;;-2.65;76.75;100234.03;4222993;28;20415;-69
2023/12/01 08:50:38;;;;;;;;;;;;;;;-2.61;76.87;100225.78;4222096;28;20019;-69
2023/12/01 08:52:40;;;;;;;;;;;;;;;-2.58;77.01;100225.59;4221304;28;20398;-69
2023/12/01 08:54:43;;;;;;;;;;;;;;;-2.55;77.02;100228.03;4222596;28;20363;-69
2023/12/01 08:56:45;;;;;;;;;;;;;;;-2.53;76.89;100239.34;4222006;28;20019;-69
2023/12/01 08:58:47;;;;;;;;;;;;;;;-2.49;76.83;100239.13;4222495;28;20014;-69
2023/12/01 09:00:49;;;;;;;;;;;;;;;-2.46;76.78;100241.56;4220810;28;20437;-69
2023/12/01 09:02:52;;;;;;;;;;;;;;;-2.39;77.51;100242.84;4221786;28;20008;-69
2023/12/01 09:04:54;;;;;;;;;;;;;;;-2.32;78.08;100244.13;4221692;28;20401;-69
2023/12/01 09:06:56;;;;;;;;;;;;;;;-2.25;78.50;100249.81;4221383;28;20022;-69
2023/12/01 09:08:58;;;;;;;;;;;;;;;-2.20;78.24;100242.41;4221043;28;20184;-69
2023/12/01 09:11:01;;;;;;;;;;;;;;;-2.16;78.33;100243.88;4221541;28;20012;-69
2023/12/01 09:13:03;;;;;;;;;;;;;;;-2.10;77.97;100258.47;4221277;28;20014;-69
2023/12/01 09:15:05;;;;;;;;;;;;;;;-2.12;77.19;100258.56;4221995;28;20015;-69
2023/12/01 09:17:07;;;;;;;;;;;;;;;-2.10;76.82;100254.03;4221363;28;20360;-69
2023/12/01 09:19:10;;;;;;;;;;;;;;;-2.06;76.66;100247.56;4221511;27;20023;-69
2023/12/01 09:21:12;;;;;;;;;;;;;;;-2.01;76.51;100252.53;4222055;28;19955;-69
2023/12/01 09:23:14;;;;;;;;;;;;;;;-1.97;76.63;100256.66;4221685;28;20014;-69
2023/12/01 09:25:16;;;;;;;;;;;;;;;-1.93;76.61;100250.19;4218735;28;20043;-69
2023/12/01 09:27:20;;;;;;;;;;;;;;;-1.90;76.30;100255.25;4221893;28;20027;-69
2023/12/01 09:29:22;;;;;;;;;;;;;;;-1.85;76.40;100261.09;4221377;28;19928;-69
2023/12/01 09:31:24;;;;;;;;;;;;;;;-1.80;76.45;100250.19;4221386;27;20003;-69
2023/12/01 09:33:26;;;;;;;;;;;;;;;-1.73;76.44;100250.59;4220550;28;20018;-69
2023/12/01 09:35:29;;;;;;;;;;;;;;;-1.69;76.43;100249.41;4220769;28;20018;-69
2023/12/01 09:37:31;;;;;;;;;;;;;;;-1.62;76.32;100255.94;4220878;28;20458;-69
2023/12/01 09:39:32;;;;;;;;;;;;;;;-1.57;76.15;100258.25;4221494;28;20360;-69
2023/12/01 09:41:35;;;;;;;;;;;;;;;-1.50;76.19;100255.06;4220042;28;19924;-69
2023/12/01 09:43:40;;;;;;;;;;;;;;;-1.42;76.07;100256.31;4220759;28;20376;-69
2023/12/01 09:45:42;;;;;;;;;;;;;;;-1.36;75.94;100247.94;4221413;28;20023;-70
2023/12/01 09:47:45;;;;;;;;;;;;;;;-1.29;75.93;100246.50;4221402;28;20019;-69
2023/12/01 09:49:47;;;;;;;;;;;;;;;-1.22;75.87;100244.22;4220190;28;19959;-69
2023/12/01 09:51:49;;;;;;;;;;;;;;;-1.19;75.46;100239.56;4219195;28;20477;-69
2023/12/01 09:53:51;;;;;;;;;;;;;;;-1.12;75.33;100245.25;4220559;28;20046;-69
2023/12/01 09:55:53;;;;;;;;;;;;;;;-1.03;75.46;100249.88;4220082;28;20069;-69
2023/12/01 09:57:55;;;;;;;;;;;;;;;-0.96;75.31;100256.41;4219945;28;20027;-69
2023/12/01 09:59:59;;;;;;;;;;;;;;;-0.89;75.05;100251.50;4220641;28;20661;-69
2023/12/01 10:02:01;;;;;;;;;;;;;;;-0.82;75.00;100246.56;4221627;28;20475;-69
2023/12/01 10:04:03;;;;;;;;;;;;;;;-0.78;74.90;100242.75;4220807;28;20022;-69
2023/12/01 10:06:07;;;;;;;;;;;;;;;-0.67;74.61;100245.41;4220679;28;20031;-69
2023/12/01 10:08:09;;;;;;;;;;;;;;;-0.61;74.48;100250.25;4220656;28;20026;-69
2023/12/01 10:10:17;;;;;;;;;;;;;;;-0.53;74.38;100249.66;4220778;28;20497;-67
2023/12/01 10:12:18;;;;;;;;;;;;;;;-0.47;74.12;100235.06;4218645;28;20024;-69
2023/12/01 10:14:21;;;;;;;;;;;;;;;-0.42;74.03;100233.75;4220851;28;20022;-69
2023/12/01 10:16:24;;;;;;;;;;;;;;;-0.34;73.73;100235.00;4220622;28;20369;-69
2023/12/01 10:18:26;;;;;;;;;;;;;;;-0.28;73.65;100245.97;4219573;28;20015;-69
2023/12/01 10:20:29;;;;;;;;;;;;;;;-0.21;73.40;100247.16;4220319;28;20026;-69
2023/12/01 10:22:31;;;;;;;;;;;;;;;-0.15;73.24;100235.22;4220546;28;20126;-69
2023/12/01 10:24:33;;;;;;;;;;;;;;;-0.10;73.31;100227.75;4220891;28;20015;-69
2023/12/01 10:26:34;;;;;;;;;;;;;;;-0.03;73.13;100233.44;4220625;28;20042;-69
2023/12/01 10:28:39;;;;;;;;;;;;;;;0.03;73.26;100234.75;4220036;28;20049;-66
2023/12/01 10:30:50;;;;;;;;;;;;;;;0.07;73.30;100221.09;4219903;28;20466;-69
2023/12/01 10:32:53;;;;;;;;;;;;;;;0.13;73.19;100222.44;4220680;28;20022;-69